Time;durP1;ratioP1;P1;durP2;ratioP2;P2;SDS_P1;SDS_P2;PMS_P1;PMS_P2;Temp;Humidity;BMP_temperature;BMP_pressure;BME280_temperature;BME280_humidity;BME280_pressure;Samples;Min_cycle;Max_cycle;Signal;HPM_P1;HPM_P2
2024/02/02 00:02:15;;;;;;;14.85;5.75;;;3.60;99.90;;;;;;5068433;28;20110;-73
2024/02/02 00:04:41;;;;;;;14.05;5.93;;;3.60;99.90;;;;;;5063814;28;20028;-72
2024/02/02 00:07:06;;;;;;;14.40;5.15;;;3.50;99.90;;;;;;5050715;28;20424;-72
2024/02/02 00:09:32;;;;;;;12.18;5.00;;;3.60;99.90;;;;;;5069515;28;20024;-72
2024/02/02 00:11:58;;;;;;;18.15;6.15;;;3.60;99.90;;;;;;5069623;28;20126;-72
2024/02/02 00:14:25;;;;;;;14.48;4.80;;;3.60;99.90;;;;;;5069630;28;20028;-72
2024/02/02 00:16:50;;;;;;;10.20;3.95;;;3.50;99.90;;;;;;5070636;28;20428;-72
2024/02/02 00:19:17;;;;;;;13.13;4.20;;;3.60;99.90;;;;;;5068926;28;20029;-72
2024/02/02 00:21:43;;;;;;;9.20;4.43;;;3.70;99.90;;;;;;5041306;28;20055;-72
2024/02/02 00:24:08;;;;;;;14.98;4.15;;;3.70;99.90;;;;;;5064214;28;20024;-73
2024/02/02 00:26:34;;;;;;;11.85;3.65;;;3.70;99.90;;;;;;5062762;28;20047;-72
2024/02/02 00:29:00;;;;;;;11.23;3.63;;;3.60;99.90;;;;;;5064921;28;20478;-72
2024/02/02 00:31:25;;;;;;;13.25;3.97;;;3.50;99.90;;;;;;5065556;28;20053;-72
2024/02/02 00:33:51;;;;;;;14.02;3.70;;;3.50;99.90;;;;;;5059266;28;20446;-72
2024/02/02 00:36:16;;;;;;;7.57;2.80;;;3.40;99.90;;;;;;5073089;28;20143;-72
2024/02/02 00:38:42;;;;;;;9.13;2.88;;;3.40;99.90;;;;;;5071907;28;20028;-72
2024/02/02 00:41:08;;;;;;;8.00;2.72;;;3.30;99.90;;;;;;5077217;28;20035;-72
2024/02/02 00:43:34;;;;;;;9.73;2.45;;;3.20;99.90;;;;;;5073260;28;20032;-72
2024/02/02 00:46:00;;;;;;;9.18;2.45;;;3.10;99.90;;;;;;5072865;28;20028;-73
2024/02/02 00:48:26;;;;;;;10.27;2.38;;;3.10;99.90;;;;;;5071875;28;20031;-72
2024/02/02 00:50:51;;;;;;;5.03;2.10;;;3.00;99.90;;;;;;5069303;28;20094;-72
2024/02/02 00:53:17;;;;;;;9.32;2.55;;;3.00;99.90;;;;;;5073797;28;20323;-72
2024/02/02 00:55:43;;;;;;;8.70;2.20;;;2.90;99.90;;;;;;5069351;28;20521;-72
2024/02/02 00:58:08;;;;;;;9.70;2.20;;;2.90;99.90;;;;;;5071795;28;20100;-72
2024/02/02 01:00:34;;;;;;;6.13;1.98;;;3.00;99.90;;;;;;5073613;28;20039;-72
2024/02/02 01:02:59;;;;;;;8.30;1.75;;;3.00;99.90;;;;;;5072204;28;20048;-72
2024/02/02 01:05:25;;;;;;;8.85;1.90;;;3.00;99.90;;;;;;5073086;28;20669;-72
2024/02/02 01:07:51;;;;;;;7.68;2.00;;;3.00;99.90;;;;;;5073835;28;20576;-72
2024/02/02 01:10:17;;;;;;;11.23;2.83;;;3.10;99.90;;;;;;5073151;28;20111;-72
2024/02/02 01:12:44;;;;;;;13.52;2.13;;;3.10;99.90;;;;;;5072478;28;20036;-72
2024/02/02 01:15:10;;;;;;;12.20;2.33;;;3.10;99.90;;;;;;5070174;28;20491;-72
2024/02/02 01:17:36;;;;;;;10.52;2.03;;;3.00;99.90;;;;;;5073300;28;20047;-72
2024/02/02 01:20:03;;;;;;;9.60;1.80;;;3.00;99.90;;;;;;5071676;28;20059;-72
2024/02/02 01:22:29;;;;;;;4.82;1.83;;;3.00;99.90;;;;;;5072451;28;20040;-72
2024/02/02 01:24:57;;;;;;;6.80;1.90;;;2.90;99.90;;;;;;5072271;28;20056;-73
2024/02/02 01:27:22;;;;;;;9.57;2.00;;;2.90;99.90;;;;;;5071880;28;20652;-72
2024/02/02 01:29:48;;;;;;;10.98;2.30;;;2.80;99.90;;;;;;5061935;28;20093;-72
2024/02/02 01:32:14;;;;;;;8.13;1.90;;;2.70;99.90;;;;;;5072411;28;20078;-72
2024/02/02 01:34:40;;;;;;;6.53;1.85;;;2.70;99.90;;;;;;5067482;28;20040;-72
2024/02/02 01:37:05;;;;;;;10.82;2.42;;;2.50;99.90;;;;;;5071944;28;20025;-72
2024/02/02 01:39:31;;;;;;;5.43;1.60;;;2.50;99.90;;;;;;5066214;28;20025;-72
2024/02/02 01:41:59;;;;;;;7.18;2.20;;;2.40;99.90;;;;;;5066068;28;20020;-73
2024/02/02 01:44:25;;;;;;;8.75;1.88;;;2.30;99.90;;;;;;5071672;28;20029;-72
2024/02/02 01:46:50;;;;;;;9.68;2.28;;;2.30;99.90;;;;;;5064021;28;20031;-72
2024/02/02 01:49:16;;;;;;;6.00;1.88;;;2.30;99.90;;;;;;5047382;28;20029;-72
2024/02/02 01:51:41;;;;;;;9.70;2.20;;;2.30;99.90;;;;;;5074301;28;20050;-72
2024/02/02 01:54:08;;;;;;;14.48;2.03;;;2.30;99.90;;;;;;5063968;28;20020;-72
2024/02/02 01:56:34;;;;;;;12.73;2.35;;;2.30;99.90;;;;;;5070627;28;20115;-72
2024/02/02 01:59:03;;;;;;;7.55;2.00;;;2.30;99.90;;;;;;5068040;28;20416;-73
2024/02/02 02:01:29;;;;;;;7.30;1.80;;;2.30;99.90;;;;;;5071669;28;20590;-72
2024/02/02 02:03:56;;;;;;;9.20;1.98;;;2.30;99.90;;;;;;5071576;28;20020;-72
2024/02/02 02:06:22;;;;;;;7.35;1.90;;;2.30;99.90;;;;;;5072030;28;20078;-72
2024/02/02 02:08:48;;;;;;;8.68;1.80;;;2.30;99.90;;;;;;5071916;28;20412;-72
2024/02/02 02:11:14;;;;;;;12.20;2.30;;;2.30;99.90;;;;;;5070899;28;20039;-72
2024/02/02 02:13:40;;;;;;;11.23;2.45;;;2.20;99.90;;;;;;5071500;28;20033;-72
2024/02/02 02:16:07;;;;;;;15.60;3.30;;;2.20;99.90;;;;;;5071073;28;20044;-71
2024/02/02 02:18:32;;;;;;;15.68;3.03;;;2.30;99.90;;;;;;5071544;28;20473;-71
2024/02/02 02:21:02;;;;;;;8.38;2.45;;;2.30;99.90;;;;;;5059569;28;20086;-72
2024/02/02 02:23:27;;;;;;;15.02;2.47;;;2.30;99.90;;;;;;5071474;28;20037;-72
2024/02/02 02:25:53;;;;;;;10.50;2.22;;;2.30;99.90;;;;;;5065149;28;20047;-71
2024/02/02 02:28:19;;;;;;;10.45;2.58;;;2.30;99.90;;;;;;5070788;28;20136;-72
2024/02/02 02:30:46;;;;;;;10.70;2.35;;;2.30;99.90;;;;;;5071502;28;20051;-71
2024/02/02 02:33:11;;;;;;;9.88;3.08;;;2.30;99.90;;;;;;5070084;28;20032;-72
2024/02/02 02:35:37;;;;;;;14.55;3.55;;;2.30;99.90;;;;;;5067689;28;20032;-72
2024/02/02 02:38:04;;;;;;;6.80;2.05;;;2.30;99.90;;;;;;5070502;28;20401;-72
2024/02/02 02:40:29;;;;;;;9.43;2.10;;;2.30;99.90;;;;;;5062208;28;20477;-72
2024/02/02 02:42:55;;;;;;;5.88;2.03;;;2.40;99.90;;;;;;5068100;28;20048;-71
2024/02/02 02:45:22;;;;;;;8.82;1.80;;;2.40;99.90;;;;;;5070172;28;20031;-72
2024/02/02 02:47:48;;;;;;;13.23;2.15;;;2.40;99.90;;;;;;5071080;28;20029;-72
2024/02/02 02:50:14;;;;;;;10.27;2.00;;;2.30;99.90;;;;;;5064270;28;20068;-72
2024/02/02 02:52:39;;;;;;;7.93;2.10;;;2.40;99.90;;;;;;5064259;28;20055;-72
2024/02/02 02:55:05;;;;;;;5.63;1.63;;;2.40;99.90;;;;;;5069553;28;20036;-72
2024/02/02 02:57:31;;;;;;;8.25;2.00;;;2.40;99.90;;;;;;5071272;28;20056;-72
2024/02/02 02:59:57;;;;;;;8.90;2.35;;;2.40;99.90;;;;;;5062107;28;20455;-73
2024/02/02 03:02:23;;;;;;;7.00;1.65;;;2.40;99.90;;;;;;5071328;28;20081;-72
2024/02/02 03:04:48;;;;;;;8.48;2.67;;;2.30;99.90;;;;;;5070906;28;20032;-73
2024/02/02 03:07:14;;;;;;;6.63;2.25;;;2.40;99.90;;;;;;5061376;28;20029;-72
2024/02/02 03:09:40;;;;;;;14.27;2.25;;;2.40;99.90;;;;;;5070487;28;20024;-72
2024/02/02 03:12:06;;;;;;;7.45;2.17;;;2.40;99.90;;;;;;5069071;28;20021;-72
2024/02/02 03:14:32;;;;;;;11.13;2.20;;;2.40;99.90;;;;;;5070491;28;20039;-72
2024/02/02 03:16:57;;;;;;;8.02;1.88;;;2.50;99.90;;;;;;5071174;28;20477;-72
2024/02/02 03:19:23;;;;;;;8.30;2.50;;;2.50;99.90;;;;;;5069976;28;20028;-72
2024/02/02 03:21:49;;;;;;;12.10;2.90;;;2.60;99.90;;;;;;5069981;28;20041;-72
2024/02/02 03:24:14;;;;;;;5.45;2.08;;;2.60;99.90;;;;;;5069947;28;20065;-72
2024/02/02 03:26:41;;;;;;;7.18;2.25;;;2.70;99.90;;;;;;5071039;28;20101;-72
2024/02/02 03:29:06;;;;;;;7.82;2.28;;;2.70;99.90;;;;;;5069539;28;20039;-72
2024/02/02 03:31:32;;;;;;;5.90;1.70;;;2.70;99.90;;;;;;5070664;28;20032;-72
2024/02/02 03:33:57;;;;;;;9.85;2.65;;;2.70;99.90;;;;;;5069255;28;20679;-72
2024/02/02 03:36:23;;;;;;;9.15;2.33;;;2.70;99.90;;;;;;5070835;28;20035;-72
2024/02/02 03:38:49;;;;;;;9.05;2.70;;;2.80;99.90;;;;;;5070429;28;20023;-72
2024/02/02 03:41:17;;;;;;;4.95;1.90;;;2.80;99.90;;;;;;5076243;28;20051;-72
2024/02/02 03:43:43;;;;;;;15.65;2.72;;;2.80;99.90;;;;;;5070434;28;20034;-72
2024/02/02 03:46:08;;;;;;;10.07;1.98;;;2.80;99.90;;;;;;5062762;28;20432;-72
2024/02/02 03:48:34;;;;;;;5.57;2.47;;;2.80;99.90;;;;;;5059063;28;20025;-72
2024/02/02 03:50:59;;;;;;;13.20;3.17;;;2.80;99.90;;;;;;5067145;28;20032;-72
2024/02/02 03:53:25;;;;;;;10.52;3.40;;;2.80;99.90;;;;;;5072056;28;20361;-72
2024/02/02 03:55:51;;;;;;;8.35;2.90;;;2.90;99.90;;;;;;5071060;28;20028;-72
2024/02/02 03:58:16;;;;;;;10.68;3.47;;;2.90;99.90;;;;;;5069621;28;20626;-72
2024/02/02 04:00:42;;;;;;;8.95;3.03;;;2.90;99.90;;;;;;5070142;28;20032;-72
2024/02/02 04:03:08;;;;;;;10.70;2.60;;;2.90;99.90;;;;;;5069598;28;20040;-72
2024/02/02 04:05:33;;;;;;;5.85;2.97;;;2.90;99.90;;;;;;5074873;28;20021;-71
2024/02/02 04:07:59;;;;;;;9.73;3.20;;;2.90;99.90;;;;;;5073409;28;20021;-72
2024/02/02 04:10:25;;;;;;;9.70;2.95;;;2.90;99.90;;;;;;5069863;28;20056;-71
2024/02/02 04:12:50;;;;;;;10.68;3.47;;;2.90;99.90;;;;;;5070203;28;20028;-71
2024/02/02 04:15:16;;;;;;;7.85;3.42;;;2.90;99.90;;;;;;5073173;28;20118;-71
2024/02/02 04:17:41;;;;;;;8.10;3.50;;;3.00;99.90;;;;;;5074113;28;20037;-71
2024/02/02 04:20:08;;;;;;;10.82;3.72;;;3.00;99.90;;;;;;5072957;28;20112;-71
2024/02/02 04:22:33;;;;;;;11.57;3.72;;;3.10;99.90;;;;;;5069486;28;20032;-73
2024/02/02 04:24:59;;;;;;;7.97;4.00;;;3.20;99.90;;;;;;5069704;28;20032;-73
2024/02/02 04:27:24;;;;;;;12.90;4.82;;;3.20;99.90;;;;;;5073564;28;20045;-72
2024/02/02 04:29:50;;;;;;;15.63;4.63;;;3.40;99.90;;;;;;5064283;28;20036;-73
2024/02/02 04:32:16;;;;;;;8.20;4.95;;;3.50;99.90;;;;;;5072760;28;20025;-72
2024/02/02 04:34:41;;;;;;;9.52;4.57;;;3.60;99.90;;;;;;5069007;28;20029;-71
2024/02/02 04:37:07;;;;;;;6.93;4.75;;;3.70;99.90;;;;;;5067655;28;20029;-72
2024/02/02 04:39:32;;;;;;;10.25;4.93;;;3.90;99.90;;;;;;5067732;28;20036;-72
2024/02/02 04:41:58;;;;;;;9.15;4.50;;;4.00;99.90;;;;;;5066194;28;20028;-72
2024/02/02 04:44:24;;;;;;;11.77;4.82;;;4.10;99.90;;;;;;5073686;28;20027;-71
2024/02/02 04:46:50;;;;;;;11.65;5.28;;;4.30;99.90;;;;;;5072283;28;20480;-71
2024/02/02 04:49:15;;;;;;;6.90;3.95;;;4.40;99.90;;;;;;5063667;28;20029;-71
2024/02/02 04:51:41;;;;;;;9.02;4.70;;;4.50;99.90;;;;;;5074978;28;20120;-71
2024/02/02 04:54:06;;;;;;;8.75;4.53;;;4.50;99.90;;;;;;5066736;28;20350;-71
2024/02/02 04:56:32;;;;;;;8.65;4.45;;;4.50;99.90;;;;;;5073909;28;20094;-71
2024/02/02 04:58:58;;;;;;;9.35;3.95;;;4.50;99.90;;;;;;5072913;28;20369;-72
2024/02/02 05:01:23;;;;;;;8.18;4.50;;;4.40;99.90;;;;;;5073617;28;20036;-71
2024/02/02 05:03:50;;;;;;;5.72;3.97;;;4.40;99.90;;;;;;5072899;28;20079;-71
2024/02/02 05:06:16;;;;;;;9.07;4.45;;;4.40;99.90;;;;;;5072668;28;20055;-71
2024/02/02 05:08:43;;;;;;;8.45;4.60;;;4.30;99.90;;;;;;5073009;28;20104;-71
2024/02/02 05:11:10;;;;;;;8.55;4.45;;;4.30;99.90;;;;;;5072615;28;20066;-71
2024/02/02 05:13:36;;;;;;;10.02;4.78;;;4.30;99.90;;;;;;5072714;28;20480;-71
2024/02/02 05:16:01;;;;;;;5.63;4.38;;;4.30;99.90;;;;;;5071109;28;20063;-73
2024/02/02 05:18:27;;;;;;;9.32;5.38;;;4.30;99.90;;;;;;5072565;28;20039;-71
2024/02/02 05:20:53;;;;;;;10.70;5.35;;;4.30;99.90;;;;;;5066046;28;20028;-71
2024/02/02 05:23:18;;;;;;;11.80;5.75;;;4.30;99.90;;;;;;5065632;28;20025;-70
2024/02/02 05:25:44;;;;;;;10.45;5.65;;;4.30;99.90;;;;;;5072951;28;20032;-71
2024/02/02 05:28:09;;;;;;;8.63;5.18;;;4.30;99.90;;;;;;5069855;28;20048;-72
2024/02/02 05:30:37;;;;;;;11.63;6.03;;;4.30;99.90;;;;;;5072863;28;20032;-71
2024/02/02 05:33:03;;;;;;;9.55;5.25;;;4.30;99.90;;;;;;5071810;28;20035;-71
2024/02/02 05:35:29;;;;;;;10.57;5.32;;;4.30;99.90;;;;;;5068696;28;20385;-74
2024/02/02 05:37:54;;;;;;;14.40;5.70;;;4.30;99.90;;;;;;5072633;28;20036;-71
2024/02/02 05:40:20;;;;;;;12.27;5.43;;;4.20;99.90;;;;;;5078809;28;20089;-73
2024/02/02 05:42:45;;;;;;;11.38;5.07;;;4.30;99.90;;;;;;5081532;28;20022;-71
2024/02/02 05:45:11;;;;;;;8.15;4.50;;;4.30;99.90;;;;;;5082569;28;20095;-73
2024/02/02 05:47:37;;;;;;;9.38;4.20;;;4.40;99.90;;;;;;5066241;28;20035;-72
2024/02/02 05:50:03;;;;;;;8.75;5.22;;;4.40;99.90;;;;;;5068917;28;20117;-73
2024/02/02 05:52:28;;;;;;;9.82;5.65;;;4.40;99.90;;;;;;5072515;28;20029;-73
2024/02/02 05:54:54;;;;;;;10.70;5.32;;;4.40;99.90;;;;;;5057092;28;20021;-71
2024/02/02 05:57:19;;;;;;;10.07;4.50;;;4.40;99.90;;;;;;5071593;28;20032;-72
2024/02/02 05:59:45;;;;;;;13.15;5.10;;;4.40;99.90;;;;;;5071242;28;20377;-72
2024/02/02 06:02:11;;;;;;;8.30;4.82;;;4.30;99.90;;;;;;5071630;28;20013;-72
2024/02/02 06:04:36;;;;;;;9.77;5.15;;;4.30;99.90;;;;;;5071729;28;20073;-71
2024/02/02 06:07:02;;;;;;;9.23;4.70;;;4.30;99.90;;;;;;5071679;28;20031;-72
2024/02/02 06:09:28;;;;;;;12.02;5.65;;;4.30;99.90;;;;;;5071555;28;20024;-71
2024/02/02 06:11:53;;;;;;;11.00;5.28;;;4.20;99.90;;;;;;5071891;28;20040;-71
2024/02/02 06:14:19;;;;;;;7.30;4.60;;;4.20;99.90;;;;;;5052701;28;20021;-76
2024/02/02 06:16:45;;;;;;;11.35;5.30;;;4.20;99.90;;;;;;5072293;28;20063;-73
2024/02/02 06:19:10;;;;;;;10.80;5.38;;;4.20;99.90;;;;;;5070394;28;20021;-73
2024/02/02 06:21:36;;;;;;;10.05;5.25;;;4.30;99.90;;;;;;5071353;28;20035;-72
2024/02/02 06:24:02;;;;;;;11.48;5.95;;;4.20;99.90;;;;;;5070473;28;20037;-72
2024/02/02 06:26:28;;;;;;;11.82;5.80;;;4.20;99.90;;;;;;5071107;28;20055;-72
2024/02/02 06:28:53;;;;;;;9.93;5.28;;;4.30;99.90;;;;;;5070297;28;20028;-71
2024/02/02 06:31:21;;;;;;;13.27;6.55;;;4.30;99.90;;;;;;5071030;28;20040;-71
2024/02/02 06:33:47;;;;;;;13.27;6.47;;;4.30;99.90;;;;;;5066650;28;20075;-71
2024/02/02 06:36:12;;;;;;;12.00;7.05;;;4.30;99.90;;;;;;5063376;28;20133;-71
2024/02/02 06:38:38;;;;;;;12.02;7.03;;;4.30;99.90;;;;;;5069483;28;20424;-73
2024/02/02 06:41:06;;;;;;;15.23;8.05;;;4.30;99.90;;;;;;5074314;28;20025;-73
2024/02/02 06:43:31;;;;;;;13.48;7.75;;;4.30;99.90;;;;;;5070806;28;20040;-71
2024/02/02 06:45:57;;;;;;;12.10;7.82;;;4.30;99.90;;;;;;5070883;28;20024;-72
2024/02/02 06:48:22;;;;;;;13.25;7.90;;;4.30;99.90;;;;;;5060818;28;20036;-71
2024/02/02 06:50:48;;;;;;;13.93;7.72;;;4.40;99.90;;;;;;5066546;28;20474;-71
2024/02/02 06:53:15;;;;;;;13.38;7.90;;;4.40;99.90;;;;;;5071184;28;20111;-72
2024/02/02 06:55:41;;;;;;;15.20;8.30;;;4.40;99.90;;;;;;5070916;28;20028;-73
2024/02/02 06:58:23;;;;;;;13.80;7.90;;;4.40;99.90;;;;;;5069914;28;20112;-72
2024/02/02 07:00:48;;;;;;;14.52;6.80;;;4.40;99.90;;;;;;5070468;28;20028;-72
2024/02/02 07:03:14;;;;;;;14.45;8.77;;;4.40;99.90;;;;;;5064891;28;20020;-71
2024/02/02 07:05:43;;;;;;;21.20;9.45;;;4.40;99.90;;;;;;5071444;28;20042;-72
2024/02/02 07:08:09;;;;;;;22.65;8.73;;;4.50;99.90;;;;;;5066089;28;20039;-71
2024/02/02 07:10:34;;;;;;;12.45;7.63;;;4.50;99.90;;;;;;5070946;28;20469;-71
2024/02/02 07:13:01;;;;;;;14.85;7.30;;;4.50;99.90;;;;;;5067674;28;20156;-71
2024/02/02 07:15:40;;;;;;;13.35;7.88;;;4.50;99.90;;;;;;5064721;28;20098;-71
2024/02/02 07:18:38;;;;;;;14.80;7.28;;;4.50;99.90;;;;;;5068638;28;20035;-71
2024/02/02 07:21:06;;;;;;;18.60;8.70;;;4.50;99.90;;;;;;5057535;28;20052;-72
2024/02/02 07:23:34;;;;;;;18.60;8.20;;;4.50;99.90;;;;;;5059404;28;20039;-72
2024/02/02 07:26:00;;;;;;;16.25;8.85;;;4.50;99.90;;;;;;5058773;28;20029;-72
2024/02/02 07:28:38;;;;;;;18.67;9.95;;;4.60;99.90;;;;;;5064986;28;20040;-71
2024/02/02 07:31:08;;;;;;;12.32;7.90;;;4.60;99.90;;;;;;5069728;28;20075;-71
2024/02/02 07:33:41;;;;;;;19.45;8.65;;;4.60;99.90;;;;;;5059370;28;20078;-71
2024/02/02 07:36:11;;;;;;;16.40;8.43;;;4.60;99.90;;;;;;5056228;28;20442;-71
2024/02/02 07:38:40;;;;;;;16.02;8.40;;;4.60;99.90;;;;;;5064739;28;20029;-73
2024/02/02 07:41:10;;;;;;;16.15;8.45;;;4.70;99.90;;;;;;5072236;28;20063;-72
2024/02/02 07:43:36;;;;;;;15.68;8.32;;;4.70;99.90;;;;;;5074083;28;20057;-72
2024/02/02 07:46:03;;;;;;;15.27;8.52;;;4.80;99.90;;;;;;5068860;28;20060;-73
2024/02/02 07:48:29;;;;;;;16.20;8.80;;;4.80;99.90;;;;;;5061180;28;20027;-71
2024/02/02 07:50:56;;;;;;;20.88;9.35;;;4.80;99.90;;;;;;5071053;28;20485;-72
2024/02/02 07:53:23;;;;;;;15.63;8.57;;;5.00;99.90;;;;;;5066956;28;20115;-72
2024/02/02 07:55:49;;;;;;;18.58;8.75;;;5.00;99.90;;;;;;5074326;28;20063;-70
2024/02/02 07:58:16;;;;;;;13.98;8.85;;;5.20;99.90;;;;;;5073172;28;20410;-70
2024/02/02 08:00:42;;;;;;;16.60;8.48;;;5.40;99.90;;;;;;5066225;28;20037;-70
2024/02/02 08:03:08;;;;;;;14.95;7.60;;;5.50;99.90;;;;;;5069392;28;20389;-70
2024/02/02 08:05:37;;;;;;;14.70;7.95;;;5.50;99.90;;;;;;5074243;28;20096;-71
2024/02/02 08:08:06;;;;;;;13.20;7.43;;;5.70;99.90;;;;;;5073189;28;20097;-70
2024/02/02 08:10:32;;;;;;;13.32;7.82;;;5.70;99.90;;;;;;5074536;28;20043;-70
2024/02/02 08:12:58;;;;;;;12.32;7.68;;;5.70;99.90;;;;;;5073369;28;20107;-70
2024/02/02 08:15:24;;;;;;;11.98;7.30;;;5.70;99.90;;;;;;5073840;28;20020;-69
2024/02/02 08:17:50;;;;;;;15.68;7.85;;;5.70;99.90;;;;;;5074074;28;20385;-74
2024/02/02 08:20:16;;;;;;;13.75;6.97;;;5.70;99.90;;;;;;5072925;28;20252;-74
2024/02/02 08:22:46;;;;;;;10.35;8.15;;;5.70;99.90;;;;;;5066560;28;20032;-73
2024/02/02 08:25:15;;;;;;;12.57;8.45;;;5.70;99.90;;;;;;5069000;28;20544;-70
2024/02/02 08:27:41;;;;;;;11.00;7.70;;;5.70;99.90;;;;;;5068893;28;20048;-70
2024/02/02 08:30:07;;;;;;;10.93;7.32;;;5.70;99.90;;;;;;5070807;28;20385;-70
2024/02/02 08:32:34;;;;;;;10.90;7.38;;;5.60;99.90;;;;;;5074197;28;20056;-71
2024/02/02 08:35:00;;;;;;;14.90;7.60;;;5.70;99.90;;;;;;5072487;28;20036;-71
2024/02/02 08:37:26;;;;;;;14.27;8.77;;;5.70;99.90;;;;;;5073895;28;20400;-70
2024/02/02 08:39:56;;;;;;;15.70;8.05;;;5.80;99.90;;;;;;5066154;28;20032;-70
2024/02/02 08:42:23;;;;;;;12.85;7.78;;;5.90;99.90;;;;;;5073787;28;20110;-70
2024/02/02 08:44:55;;;;;;;15.00;8.65;;;5.90;99.90;;;;;;5073575;28;20035;-70
2024/02/02 08:47:21;;;;;;;14.52;8.45;;;6.00;99.90;;;;;;5066889;28;20021;-70
2024/02/02 08:49:59;;;;;;;15.20;8.57;;;6.10;99.90;;;;;;5066255;28;20033;-70
2024/02/02 08:52:31;;;;;;;13.32;8.57;;;6.20;99.90;;;;;;5073138;28;20413;-70
2024/02/02 08:54:58;;;;;;;15.45;8.60;;;6.20;99.90;;;;;;5073569;28;20069;-71
2024/02/02 08:57:30;;;;;;;15.20;9.10;;;6.20;99.90;;;;;;5073795;28;20021;-70
2024/02/02 09:00:04;;;;;;;11.63;7.88;;;6.20;99.90;;;;;;5072588;28;20500;-70
2024/02/02 09:02:33;;;;;;;11.77;8.10;;;6.30;99.90;;;;;;5073556;28;20484;-70
2024/02/02 09:05:23;;;;;;;13.48;7.95;;;6.40;99.90;;;;;;5071989;28;20101;-70
2024/02/02 09:08:05;;;;;;;;;;;6.50;99.90;;;;;;5066479;28;20021;-70
2024/02/02 09:10:30;;;;;;;11.15;8.35;;;6.50;99.90;;;;;;5073437;28;19916;-70
2024/02/02 09:13:02;;;;;;;12.60;8.43;;;6.60;99.90;;;;;;5055090;28;20384;-70
2024/02/02 09:15:33;;;;;;;13.65;8.23;;;6.70;99.90;;;;;;5073643;28;20058;-70
2024/02/02 09:17:59;;;;;;;14.20;8.65;;;6.80;99.90;;;;;;5072270;28;20035;-70
2024/02/02 09:20:44;;;;;;;11.15;7.95;;;6.90;99.90;;;;;;5052766;28;20041;-69
2024/02/02 09:23:11;;;;;;;12.68;8.38;;;6.90;99.90;;;;;;5071548;28;20472;-70
2024/02/02 09:25:42;;;;;;;15.48;9.38;;;7.00;99.90;;;;;;5070678;28;20529;-70
2024/02/02 09:28:28;;;;;;;15.55;8.80;;;7.10;99.90;;;;;;5069444;28;20127;-71
2024/02/02 09:31:06;;;;;;;14.25;9.25;;;7.20;99.90;;;;;;5072971;28;20036;-71
2024/02/02 09:33:32;;;;;;;13.18;9.02;;;7.20;99.90;;;;;;5068768;28;20112;-72
2024/02/02 09:35:59;;;;;;;15.55;9.30;;;7.30;99.90;;;;;;5069727;28;20162;-73
2024/02/02 09:38:25;;;;;;;14.13;8.43;;;7.30;99.90;;;;;;5064892;28;20025;-72
2024/02/02 09:41:00;;;;;;;12.43;8.73;;;7.40;99.90;;;;;;5066421;28;20036;-72
2024/02/02 09:43:38;;;;;;;14.45;8.20;;;7.40;99.90;;;;;;5071579;28;20465;-72
2024/02/02 09:46:22;;;;;;;9.75;7.15;;;7.50;99.90;;;;;;5067669;28;20024;-73
2024/02/02 09:49:03;;;;;;;10.48;6.93;;;7.60;99.90;;;;;;5059062;28;20029;-72
2024/02/02 09:51:46;;;;;;;8.82;6.30;;;;;;;;;;5066799;28;20039;-72
2024/02/02 09:54:31;;;;;;;8.85;6.78;;;7.80;99.90;;;;;;5064753;28;20066;-73
2024/02/02 09:56:58;;;;;;;6.32;4.95;;;;;;;;;;5066596;28;20028;-72
2024/02/02 09:59:42;;;;;;;5.88;4.85;;;;;;;;;;5074163;28;20021;-73
2024/02/02 10:02:43;;;;;;;8.00;5.25;;;8.20;99.90;;;;;;5070303;28;20016;-73
2024/02/02 10:05:36;;;;;;;6.78;5.05;;;8.20;99.90;;;;;;5071125;28;20048;-74
2024/02/02 10:08:32;;;;;;;5.88;4.95;;;8.20;99.90;;;;;;5070876;28;20028;-74
2024/02/02 10:11:44;;;;;;;7.70;4.40;;;8.30;99.90;;;;;;5068348;28;20029;-73
2024/02/02 10:14:52;;;;;;;5.90;4.45;;;8.50;99.90;;;;;;5050539;28;20029;-74
2024/02/02 10:17:18;;;;;;;7.07;4.55;;;;;;;;;;5057260;28;20029;-74
2024/02/02 10:19:44;;;;;;;4.75;3.70;;;;;;;;;;5068065;28;20020;-75
2024/02/02 10:22:21;;;;;;;6.40;4.25;;;;;;;;;;5073065;28;20040;-74
2024/02/02 10:25:03;;;;;;;4.75;3.78;;;;;;;;;;5072851;28;20465;-73
2024/02/02 10:27:48;;;;;;;5.57;4.13;;;;;;;;;;5069292;28;20040;-74
2024/02/02 10:30:19;;;;;;;8.00;4.22;;;;;;;;;;5053315;28;20036;-73
2024/02/02 10:32:48;;;;;;;9.05;5.00;;;;;;;;;;5069312;28;20073;-75
2024/02/02 10:35:27;;;;;;;5.53;4.03;;;;;;;;;;5070367;28;20043;-74
2024/02/02 10:37:53;;;;;;;5.20;3.72;;;;;;;;;;5071206;28;20423;-74
2024/02/02 10:40:22;;;;;;;6.97;3.42;;;;;;;;;;5067564;28;20029;-75
2024/02/02 10:42:57;;;;;;;5.32;3.20;;;;;;;;;;5071152;28;20029;-74
2024/02/02 10:45:29;;;;;;;5.65;3.65;;;;;;;;;;5062105;28;20025;-74
2024/02/02 10:48:00;;;;;;;6.55;3.30;;;;;;;;;;5061701;28;20032;-74
2024/02/02 10:50:39;;;;;;;4.85;3.42;;;;;;;;;;5023905;28;20038;-74
2024/02/02 10:53:28;;;;;;;3.20;2.90;;;;;;;;;;5066872;28;20021;-77
2024/02/02 10:55:53;;;;;;;4.80;3.13;;;;;;;;;;5071186;28;20358;-75
2024/02/02 10:58:32;;;;;;;4.82;3.15;;;;;;;;;;5070372;28;20032;-73
2024/02/02 11:01:08;;;;;;;4.78;3.03;;;;;;;;;;5064307;28;20036;-70
2024/02/02 11:03:40;;;;;;;4.65;3.03;;;;;;;;;;5074141;28;20052;-75
2024/02/02 11:06:27;;;;;;;5.40;3.30;;;;;;;;;;5070696;28;20021;-74
2024/02/02 11:08:58;;;;;;;5.88;3.63;;;;;;;;;;5069752;28;20031;-76
2024/02/02 11:11:26;;;;;;;4.75;2.90;;;;;;;;;;5070875;28;20166;-75
2024/02/02 11:14:12;;;;;;;3.10;2.80;;;;;;;;;;5065815;28;20406;-75
2024/02/02 11:16:44;;;;;;;3.70;2.47;;;;;;;;;;5070544;28;20400;-73
2024/02/02 11:19:13;;;;;;;3.72;2.72;;;;;;;;;;5068630;28;20025;-73
2024/02/02 11:21:46;;;;;;;3.85;2.50;;;;;;;;;;5071898;28;20521;-74
2024/02/02 11:24:12;;;;;;;2.40;2.20;;;;;;;;;;5070186;28;20024;-74
2024/02/02 11:26:53;;;;;;;5.10;2.10;;;10.40;99.90;;;;;;5068908;28;20052;-77
2024/02/02 11:29:53;;;;;;;3.65;2.20;;;10.40;99.90;;;;;;5069183;28;20114;-72
2024/02/02 11:32:23;;;;;;;3.00;1.90;;;10.20;99.90;;;;;;5066965;28;20079;-72
2024/02/02 11:35:07;;;;;;;3.10;1.75;;;10.30;99.90;;;;;;5070179;28;20456;-74
2024/02/02 11:37:38;;;;;;;2.50;1.88;;;10.40;99.90;;;;;;5071238;28;20350;-74
2024/02/02 11:40:08;;;;;;;3.65;2.03;;;;;;;;;;5068700;28;20029;-73
2024/02/02 11:42:36;;;;;;;3.35;1.55;;;10.70;99.90;;;;;;5067425;28;20505;-74
2024/02/02 11:45:03;;;;;;;1.80;1.70;;;10.90;99.90;;;;;;5066395;28;20029;-74
2024/02/02 11:47:33;;;;;;;2.28;1.50;;;10.90;99.90;;;;;;5070445;28;20032;-74
2024/02/02 11:50:05;;;;;;;2.58;1.38;;;11.00;99.90;;;;;;5065830;28;20153;-74
2024/02/02 11:52:39;;;;;;;4.00;1.70;;;11.20;99.90;;;;;;5063295;28;20537;-74
2024/02/02 11:55:16;;;;;;;2.08;1.88;;;11.30;99.90;;;;;;5066147;28;20024;-73
2024/02/02 11:57:50;;;;;;;3.95;1.35;;;11.40;99.90;;;;;;5070248;28;20481;-74
2024/02/02 12:00:47;;;;;;;1.90;1.35;;;11.40;99.90;;;;;;5068999;28;20107;-74
2024/02/02 12:03:19;;;;;;;1.73;1.13;;;11.60;99.90;;;;;;5046995;28;20040;-74
2024/02/02 12:06:15;;;;;;;2.53;1.13;;;11.80;99.90;;;;;;5068851;28;20095;-74
2024/02/02 12:08:49;;;;;;;1.30;1.17;;;11.80;99.90;;;;;;5064919;28;20046;-74
2024/02/02 12:11:17;;;;;;;2.45;1.45;;;11.90;99.90;;;;;;5068725;28;20086;-75
2024/02/02 12:13:46;;;;;;;1.77;1.05;;;11.90;99.90;;;;;;5069132;28;20021;-75
2024/02/02 12:16:12;;;;;;;1.48;1.23;;;11.90;99.90;;;;;;5068894;28;20027;-75
2024/02/02 12:18:38;;;;;;;1.98;1.00;;;12.00;99.90;;;;;;5067004;28;20032;-75
2024/02/02 12:21:11;;;;;;;1.90;1.27;;;12.00;99.90;;;;;;5067572;28;20465;-72
2024/02/02 12:23:37;;;;;;;1.65;1.30;;;12.10;99.90;;;;;;5062730;28;20170;-74
2024/02/02 12:26:03;;;;;;;2.25;1.15;;;12.10;99.90;;;;;;5069403;28;20048;-74
2024/02/02 12:28:29;;;;;;;3.13;0.82;;;12.30;99.90;;;;;;5054637;28;20439;-75
2024/02/02 12:30:54;;;;;;;1.73;0.80;;;12.30;99.90;;;;;;5060093;28;20108;-80
2024/02/02 12:33:21;;;;;;;2.72;1.08;;;12.30;99.90;;;;;;5058386;28;20052;-72
2024/02/02 12:35:46;;;;;;;1.30;1.00;;;12.30;99.90;;;;;;5065848;28;20028;-73
2024/02/02 12:38:22;;;;;;;3.42;1.08;;;12.30;99.90;;;;;;5061732;28;20563;-75
2024/02/02 12:40:48;;;;;;;1.67;1.20;;;12.30;99.90;;;;;;5069113;28;20033;-74
2024/02/02 12:43:21;;;;;;;2.85;0.95;;;12.30;99.90;;;;;;5072126;28;20085;-74
2024/02/02 12:45:47;;;;;;;1.10;0.85;;;12.30;99.90;;;;;;5056058;28;20020;-74
2024/02/02 12:48:13;;;;;;;1.58;0.70;;;12.30;99.90;;;;;;5073038;28;20025;-75
2024/02/02 12:50:39;;;;;;;4.70;0.90;;;12.30;99.90;;;;;;5064796;28;20462;-75
2024/02/02 12:53:04;;;;;;;2.42;1.10;;;12.30;99.90;;;;;;5066533;28;20148;-74
2024/02/02 12:55:30;;;;;;;1.27;0.88;;;12.20;99.90;;;;;;5074305;28;20039;-74
2024/02/02 12:57:55;;;;;;;1.55;0.98;;;12.20;99.90;;;;;;5074032;28;20047;-75
2024/02/02 13:00:22;;;;;;;0.90;0.70;;;12.30;99.90;;;;;;5065807;28;20056;-74
2024/02/02 13:02:48;;;;;;;1.77;0.80;;;12.30;99.90;;;;;;5070319;28;20024;-75
2024/02/02 13:05:16;;;;;;;1.55;0.85;;;12.30;99.90;;;;;;5065455;28;20040;-73
2024/02/02 13:07:44;;;;;;;1.67;0.77;;;12.40;99.90;;;;;;5066739;28;20082;-74
2024/02/02 13:10:11;;;;;;;1.05;0.80;;;12.40;99.90;;;;;;5071786;28;20115;-74